sensor_id;sensor_type;location;lat;lon;timestamp;P1;durP1;ratioP1;P2;durP2;ratioP2
26106;SDS011;13866;50.748;12.630;2023-05-21T00:02:13;24.13;;;21.60;;
26106;SDS011;13866;50.748;12.630;2023-05-21T00:04:41;23.43;;;20.90;;
26106;SDS011;13866;50.748;12.630;2023-05-21T00:07:07;24.00;;;21.60;;
26106;SDS011;13866;50.748;12.630;2023-05-21T00:09:33;22.23;;;20.00;;
26106;SDS011;13866;50.748;12.630;2023-05-21T00:11:59;21.90;;;19.67;;
26106;SDS011;13866;50.748;12.630;2023-05-21T00:14:25;25.73;;;20.30;;
26106;SDS011;13866;50.748;12.630;2023-05-21T00:16:50;24.50;;;21.03;;
26106;SDS011;13866;50.748;12.630;2023-05-21T00:19:16;22.47;;;20.23;;
26106;SDS011;13866;50.748;12.630;2023-05-21T00:21:41;23.23;;;20.20;;
26106;SDS011;13866;50.748;12.630;2023-05-21T00:24:09;24.10;;;21.37;;
26106;SDS011;13866;50.748;12.630;2023-05-21T00:26:35;23.10;;;20.60;;
26106;SDS011;13866;50.748;12.630;2023-05-21T00:29:01;22.53;;;20.20;;
26106;SDS011;13866;50.748;12.630;2023-05-21T00:31:27;22.37;;;20.17;;
26106;SDS011;13866;50.748;12.630;2023-05-21T00:33:52;23.33;;;20.10;;
26106;SDS011;13866;50.748;12.630;2023-05-21T00:36:18;21.63;;;19.17;;
26106;SDS011;13866;50.748;12.630;2023-05-21T00:38:48;23.50;;;20.93;;
26106;SDS011;13866;50.748;12.630;2023-05-21T00:41:14;25.20;;;20.63;;
26106;SDS011;13866;50.748;12.630;2023-05-21T00:43:40;26.23;;;19.60;;
26106;SDS011;13866;50.748;12.630;2023-05-21T00:46:09;22.93;;;20.50;;
26106;SDS011;13866;50.748;12.630;2023-05-21T00:48:41;24.57;;;21.37;;
26106;SDS011;13866;50.748;12.630;2023-05-21T00:51:14;23.83;;;19.33;;
26106;SDS011;13866;50.748;12.630;2023-05-21T00:53:42;28.60;;;20.97;;
26106;SDS011;13866;50.748;12.630;2023-05-21T00:56:08;25.77;;;20.90;;
26106;SDS011;13866;50.748;12.630;2023-05-21T00:58:34;25.97;;;22.23;;
26106;SDS011;13866;50.748;12.630;2023-05-21T01:01:00;26.00;;;21.80;;
26106;SDS011;13866;50.748;12.630;2023-05-21T01:03:30;23.70;;;21.20;;
26106;SDS011;13866;50.748;12.630;2023-05-21T01:06:02;23.13;;;20.70;;
26106;SDS011;13866;50.748;12.630;2023-05-21T01:08:29;22.20;;;19.83;;
26106;SDS011;13866;50.748;12.630;2023-05-21T01:10:54;24.93;;;21.40;;
26106;SDS011;13866;50.748;12.630;2023-05-21T01:13:21;24.13;;;21.73;;
26106;SDS011;13866;50.748;12.630;2023-05-21T01:15:48;22.00;;;19.80;;
26106;SDS011;13866;50.748;12.630;2023-05-21T01:18:14;28.50;;;20.30;;
26106;SDS011;13866;50.748;12.630;2023-05-21T01:20:40;26.23;;;21.17;;
26106;SDS011;13866;50.748;12.630;2023-05-21T01:23:06;24.30;;;21.90;;
26106;SDS011;13866;50.748;12.630;2023-05-21T01:25:32;24.97;;;22.30;;
26106;SDS011;13866;50.748;12.630;2023-05-21T01:27:59;22.07;;;19.77;;
26106;SDS011;13866;50.748;12.630;2023-05-21T01:30:24;24.17;;;21.57;;
26106;SDS011;13866;50.748;12.630;2023-05-21T01:35:27;25.60;;;23.03;;
26106;SDS011;13866;50.748;12.630;2023-05-21T01:38:04;25.50;;;22.10;;
26106;SDS011;13866;50.748;12.630;2023-05-21T01:40:52;24.93;;;20.50;;
26106;SDS011;13866;50.748;12.630;2023-05-21T01:43:18;21.33;;;19.27;;
26106;SDS011;13866;50.748;12.630;2023-05-21T01:45:44;22.57;;;20.27;;
26106;SDS011;13866;50.748;12.630;2023-05-21T01:48:11;24.43;;;21.20;;
26106;SDS011;13866;50.748;12.630;2023-05-21T01:50:38;22.10;;;19.90;;
26106;SDS011;13866;50.748;12.630;2023-05-21T01:53:05;23.77;;;21.33;;
26106;SDS011;13866;50.748;12.630;2023-05-21T01:55:30;28.50;;;21.03;;
26106;SDS011;13866;50.748;12.630;2023-05-21T01:57:56;24.47;;;21.60;;
26106;SDS011;13866;50.748;12.630;2023-05-21T02:00:24;23.70;;;21.20;;
26106;SDS011;13866;50.748;12.630;2023-05-21T02:02:52;24.27;;;21.70;;
26106;SDS011;13866;50.748;12.630;2023-05-21T02:05:17;22.70;;;20.50;;
26106;SDS011;13866;50.748;12.630;2023-05-21T02:07:43;22.40;;;20.17;;
26106;SDS011;13866;50.748;12.630;2023-05-21T02:10:09;22.57;;;20.60;;
26106;SDS011;13866;50.748;12.630;2023-05-21T02:12:35;23.17;;;20.70;;
26106;SDS011;13866;50.748;12.630;2023-05-21T02:15:01;22.53;;;20.27;;
26106;SDS011;13866;50.748;12.630;2023-05-21T02:17:27;25.33;;;20.40;;
26106;SDS011;13866;50.748;12.630;2023-05-21T02:19:58;21.33;;;19.20;;
26106;SDS011;13866;50.748;12.630;2023-05-21T02:22:34;22.63;;;20.33;;
26106;SDS011;13866;50.748;12.630;2023-05-21T02:25:01;23.70;;;21.10;;
26106;SDS011;13866;50.748;12.630;2023-05-21T02:27:26;21.43;;;19.30;;
26106;SDS011;13866;50.748;12.630;2023-05-21T02:29:55;22.00;;;19.80;;
26106;SDS011;13866;50.748;12.630;2023-05-21T02:32:21;22.53;;;20.17;;
26106;SDS011;13866;50.748;12.630;2023-05-21T02:34:47;21.90;;;19.70;;
26106;SDS011;13866;50.748;12.630;2023-05-21T02:37:13;23.33;;;20.33;;
26106;SDS011;13866;50.748;12.630;2023-05-21T02:39:39;25.33;;;19.67;;
26106;SDS011;13866;50.748;12.630;2023-05-21T02:42:05;23.20;;;20.73;;
26106;SDS011;13866;50.748;12.630;2023-05-21T02:44:30;20.93;;;19.00;;
26106;SDS011;13866;50.748;12.630;2023-05-21T02:46:55;22.30;;;19.57;;
26106;SDS011;13866;50.748;12.630;2023-05-21T02:49:21;21.87;;;19.30;;
26106;SDS011;13866;50.748;12.630;2023-05-21T02:51:46;22.90;;;19.27;;
26106;SDS011;13866;50.748;12.630;2023-05-21T02:54:12;21.43;;;19.23;;
26106;SDS011;13866;50.748;12.630;2023-05-21T02:56:38;19.87;;;17.97;;
26106;SDS011;13866;50.748;12.630;2023-05-21T02:59:04;21.50;;;19.57;;
26106;SDS011;13866;50.748;12.630;2023-05-21T03:01:29;26.73;;;19.73;;
26106;SDS011;13866;50.748;12.630;2023-05-21T03:03:55;18.70;;;17.00;;
26106;SDS011;13866;50.748;12.630;2023-05-21T03:06:20;22.03;;;19.63;;
26106;SDS011;13866;50.748;12.630;2023-05-21T03:08:46;21.20;;;19.20;;
26106;SDS011;13866;50.748;12.630;2023-05-21T03:11:11;20.57;;;18.30;;
26106;SDS011;13866;50.748;12.630;2023-05-21T03:13:37;21.27;;;19.27;;
26106;SDS011;13866;50.748;12.630;2023-05-21T03:16:02;22.00;;;19.80;;
26106;SDS011;13866;50.748;12.630;2023-05-21T03:18:28;25.47;;;21.10;;
26106;SDS011;13866;50.748;12.630;2023-05-21T03:20:53;21.90;;;19.73;;
26106;SDS011;13866;50.748;12.630;2023-05-21T03:23:19;19.50;;;17.60;;
26106;SDS011;13866;50.748;12.630;2023-05-21T03:25:45;21.67;;;19.67;;
26106;SDS011;13866;50.748;12.630;2023-05-21T03:28:10;19.90;;;18.20;;
26106;SDS011;13866;50.748;12.630;2023-05-21T03:30:36;23.40;;;21.10;;
26106;SDS011;13866;50.748;12.630;2023-05-21T03:33:02;21.60;;;19.60;;
26106;SDS011;13866;50.748;12.630;2023-05-21T03:35:28;22.37;;;19.27;;
26106;SDS011;13866;50.748;12.630;2023-05-21T03:37:54;26.43;;;20.60;;
26106;SDS011;13866;50.748;12.630;2023-05-21T03:40:20;21.37;;;19.27;;
26106;SDS011;13866;50.748;12.630;2023-05-21T03:42:45;23.37;;;20.90;;
26106;SDS011;13866;50.748;12.630;2023-05-21T03:45:11;23.77;;;20.70;;
26106;SDS011;13866;50.748;12.630;2023-05-21T03:47:37;20.63;;;18.60;;
26106;SDS011;13866;50.748;12.630;2023-05-21T03:50:02;23.33;;;20.37;;
26106;SDS011;13866;50.748;12.630;2023-05-21T03:52:29;20.57;;;18.63;;
26106;SDS011;13866;50.748;12.630;2023-05-21T03:54:55;22.37;;;20.27;;
26106;SDS011;13866;50.748;12.630;2023-05-21T03:57:20;22.47;;;20.23;;
26106;SDS011;13866;50.748;12.630;2023-05-21T03:59:46;20.83;;;18.63;;
26106;SDS011;13866;50.748;12.630;2023-05-21T04:02:11;22.43;;;20.33;;
26106;SDS011;13866;50.748;12.630;2023-05-21T04:04:37;20.97;;;18.90;;
26106;SDS011;13866;50.748;12.630;2023-05-21T04:07:03;23.17;;;19.73;;
26106;SDS011;13866;50.748;12.630;2023-05-21T04:09:29;21.53;;;19.63;;
26106;SDS011;13866;50.748;12.630;2023-05-21T04:11:54;21.73;;;19.50;;
26106;SDS011;13866;50.748;12.630;2023-05-21T04:14:21;24.77;;;20.70;;
26106;SDS011;13866;50.748;12.630;2023-05-21T04:16:47;22.53;;;20.37;;
26106;SDS011;13866;50.748;12.630;2023-05-21T04:19:13;23.40;;;21.10;;
26106;SDS011;13866;50.748;12.630;2023-05-21T04:21:38;22.43;;;19.23;;
26106;SDS011;13866;50.748;12.630;2023-05-21T04:24:04;21.77;;;19.57;;
26106;SDS011;13866;50.748;12.630;2023-05-21T04:26:29;29.43;;;20.60;;
26106;SDS011;13866;50.748;12.630;2023-05-21T04:28:57;22.17;;;19.87;;
26106;SDS011;13866;50.748;12.630;2023-05-21T04:31:23;21.20;;;19.20;;
26106;SDS011;13866;50.748;12.630;2023-05-21T04:33:49;21.23;;;19.00;;
26106;SDS011;13866;50.748;12.630;2023-05-21T04:36:14;22.93;;;20.53;;
26106;SDS011;13866;50.748;12.630;2023-05-21T04:38:41;22.67;;;20.43;;
26106;SDS011;13866;50.748;12.630;2023-05-21T04:41:06;19.67;;;17.87;;
26106;SDS011;13866;50.748;12.630;2023-05-21T04:43:34;22.87;;;19.73;;
26106;SDS011;13866;50.748;12.630;2023-05-21T04:46:00;24.13;;;21.60;;
26106;SDS011;13866;50.748;12.630;2023-05-21T04:48:26;25.30;;;20.57;;
26106;SDS011;13866;50.748;12.630;2023-05-21T04:50:52;25.17;;;20.83;;
26106;SDS011;13866;50.748;12.630;2023-05-21T04:53:18;23.30;;;21.00;;
26106;SDS011;13866;50.748;12.630;2023-05-21T04:55:43;22.17;;;19.97;;
26106;SDS011;13866;50.748;12.630;2023-05-21T04:58:10;22.40;;;20.00;;
26106;SDS011;13866;50.748;12.630;2023-05-21T05:00:36;23.00;;;20.90;;
26106;SDS011;13866;50.748;12.630;2023-05-21T05:03:02;23.97;;;21.67;;
26106;SDS011;13866;50.748;12.630;2023-05-21T05:05:29;25.00;;;21.67;;
26106;SDS011;13866;50.748;12.630;2023-05-21T05:07:54;21.83;;;19.90;;
26106;SDS011;13866;50.748;12.630;2023-05-21T05:10:22;22.30;;;20.23;;
26106;SDS011;13866;50.748;12.630;2023-05-21T05:12:47;20.37;;;18.47;;
26106;SDS011;13866;50.748;12.630;2023-05-21T05:15:13;25.10;;;21.80;;
26106;SDS011;13866;50.748;12.630;2023-05-21T05:17:38;21.90;;;19.97;;
26106;SDS011;13866;50.748;12.630;2023-05-21T05:20:05;22.30;;;20.23;;
26106;SDS011;13866;50.748;12.630;2023-05-21T05:22:31;23.23;;;19.40;;
26106;SDS011;13866;50.748;12.630;2023-05-21T05:24:57;22.20;;;20.10;;
26106;SDS011;13866;50.748;12.630;2023-05-21T05:27:22;23.43;;;21.30;;
26106;SDS011;13866;50.748;12.630;2023-05-21T05:29:48;21.87;;;19.87;;
26106;SDS011;13866;50.748;12.630;2023-05-21T05:32:13;21.70;;;19.40;;
26106;SDS011;13866;50.748;12.630;2023-05-21T05:34:39;21.33;;;19.53;;
26106;SDS011;13866;50.748;12.630;2023-05-21T05:37:06;24.30;;;21.87;;
26106;SDS011;13866;50.748;12.630;2023-05-21T05:39:32;24.23;;;21.17;;
26106;SDS011;13866;50.748;12.630;2023-05-21T05:41:57;25.40;;;20.20;;
26106;SDS011;13866;50.748;12.630;2023-05-21T05:47:10;27.50;;;19.20;;
26106;SDS011;13866;50.748;12.630;2023-05-21T05:49:36;21.37;;;19.20;;
26106;SDS011;13866;50.748;12.630;2023-05-21T05:52:01;20.67;;;18.77;;
26106;SDS011;13866;50.748;12.630;2023-05-21T05:54:27;19.87;;;17.93;;
26106;SDS011;13866;50.748;12.630;2023-05-21T05:56:52;19.53;;;17.43;;
26106;SDS011;13866;50.748;12.630;2023-05-21T05:59:24;20.93;;;18.73;;
26106;SDS011;13866;50.748;12.630;2023-05-21T06:01:50;18.23;;;16.50;;
26106;SDS011;13866;50.748;12.630;2023-05-21T06:04:15;20.40;;;17.33;;
26106;SDS011;13866;50.748;12.630;2023-05-21T06:06:41;18.20;;;16.43;;
26106;SDS011;13866;50.748;12.630;2023-05-21T06:09:06;18.37;;;16.70;;
26106;SDS011;13866;50.748;12.630;2023-05-21T06:11:31;18.73;;;16.37;;
26106;SDS011;13866;50.748;12.630;2023-05-21T06:13:57;20.20;;;16.20;;
26106;SDS011;13866;50.748;12.630;2023-05-21T06:19:12;20.13;;;14.80;;
26106;SDS011;13866;50.748;12.630;2023-05-21T06:21:37;16.33;;;15.00;;
26106;SDS011;13866;50.748;12.630;2023-05-21T06:24:03;17.33;;;15.73;;
26106;SDS011;13866;50.748;12.630;2023-05-21T06:26:28;19.57;;;16.57;;
26106;SDS011;13866;50.748;12.630;2023-05-21T06:28:54;34.33;;;15.93;;
26106;SDS011;13866;50.748;12.630;2023-05-21T06:31:20;16.43;;;15.03;;
26106;SDS011;13866;50.748;12.630;2023-05-21T06:33:46;16.97;;;15.60;;
26106;SDS011;13866;50.748;12.630;2023-05-21T06:36:13;18.20;;;16.13;;
26106;SDS011;13866;50.748;12.630;2023-05-21T06:38:39;17.77;;;16.23;;
26106;SDS011;13866;50.748;12.630;2023-05-21T06:41:04;17.80;;;15.60;;
26106;SDS011;13866;50.748;12.630;2023-05-21T06:43:42;16.90;;;15.43;;
26106;SDS011;13866;50.748;12.630;2023-05-21T06:46:08;18.57;;;16.43;;
26106;SDS011;13866;50.748;12.630;2023-05-21T06:48:33;17.80;;;15.67;;
26106;SDS011;13866;50.748;12.630;2023-05-21T06:50:59;22.07;;;15.20;;
26106;SDS011;13866;50.748;12.630;2023-05-21T06:53:24;16.73;;;15.13;;
26106;SDS011;13866;50.748;12.630;2023-05-21T06:55:50;21.23;;;16.03;;
26106;SDS011;13866;50.748;12.630;2023-05-21T06:58:17;15.97;;;14.47;;
26106;SDS011;13866;50.748;12.630;2023-05-21T07:00:43;16.27;;;14.80;;
26106;SDS011;13866;50.748;12.630;2023-05-21T07:03:08;16.20;;;14.80;;
26106;SDS011;13866;50.748;12.630;2023-05-21T07:05:34;16.47;;;14.90;;
26106;SDS011;13866;50.748;12.630;2023-05-21T07:08:15;16.10;;;14.70;;
26106;SDS011;13866;50.748;12.630;2023-05-21T07:10:41;23.27;;;15.30;;
26106;SDS011;13866;50.748;12.630;2023-05-21T07:13:06;17.27;;;15.47;;
26106;SDS011;13866;50.748;12.630;2023-05-21T07:15:32;15.93;;;14.50;;
26106;SDS011;13866;50.748;12.630;2023-05-21T07:20:45;15.73;;;14.27;;
26106;SDS011;13866;50.748;12.630;2023-05-21T07:23:10;15.57;;;14.20;;
26106;SDS011;13866;50.748;12.630;2023-05-21T07:25:36;14.33;;;12.93;;
26106;SDS011;13866;50.748;12.630;2023-05-21T07:28:20;16.23;;;14.90;;
26106;SDS011;13866;50.748;12.630;2023-05-21T07:30:45;14.40;;;13.20;;
26106;SDS011;13866;50.748;12.630;2023-05-21T07:33:17;14.70;;;13.33;;
26106;SDS011;13866;50.748;12.630;2023-05-21T07:35:44;14.13;;;12.80;;
26106;SDS011;13866;50.748;12.630;2023-05-21T07:38:10;11.57;;;10.67;;
26106;SDS011;13866;50.748;12.630;2023-05-21T07:40:35;14.17;;;13.00;;
26106;SDS011;13866;50.748;12.630;2023-05-21T07:43:01;14.33;;;10.80;;
26106;SDS011;13866;50.748;12.630;2023-05-21T07:45:26;13.37;;;12.00;;
26106;SDS011;13866;50.748;12.630;2023-05-21T07:47:52;12.57;;;11.33;;
26106;SDS011;13866;50.748;12.630;2023-05-21T07:50:17;10.60;;;9.90;;
26106;SDS011;13866;50.748;12.630;2023-05-21T07:52:43;9.93;;;9.20;;
26106;SDS011;13866;50.748;12.630;2023-05-21T07:55:08;14.30;;;10.50;;
26106;SDS011;13866;50.748;12.630;2023-05-21T07:57:34;12.70;;;11.43;;
26106;SDS011;13866;50.748;12.630;2023-05-21T07:59:59;10.37;;;9.67;;
26106;SDS011;13866;50.748;12.630;2023-05-21T08:02:25;13.30;;;11.63;;
26106;SDS011;13866;50.748;12.630;2023-05-21T08:04:51;10.87;;;9.93;;
26106;SDS011;13866;50.748;12.630;2023-05-21T08:07:16;11.33;;;10.43;;
26106;SDS011;13866;50.748;12.630;2023-05-21T08:09:43;11.80;;;10.60;;
26106;SDS011;13866;50.748;12.630;2023-05-21T08:12:09;11.27;;;10.37;;
26106;SDS011;13866;50.748;12.630;2023-05-21T08:14:38;9.93;;;9.20;;
26106;SDS011;13866;50.748;12.630;2023-05-21T08:17:03;11.90;;;9.90;;
26106;SDS011;13866;50.748;12.630;2023-05-21T08:19:29;10.60;;;9.90;;
26106;SDS011;13866;50.748;12.630;2023-05-21T08:21:55;16.57;;;10.93;;
26106;SDS011;13866;50.748;12.630;2023-05-21T08:24:20;11.13;;;9.97;;
26106;SDS011;13866;50.748;12.630;2023-05-21T08:26:45;11.40;;;10.30;;
26106;SDS011;13866;50.748;12.630;2023-05-21T08:29:13;10.30;;;9.40;;
26106;SDS011;13866;50.748;12.630;2023-05-21T08:31:39;10.57;;;9.57;;
26106;SDS011;13866;50.748;12.630;2023-05-21T08:34:04;10.63;;;9.70;;
26106;SDS011;13866;50.748;12.630;2023-05-21T08:36:36;10.40;;;9.60;;
26106;SDS011;13866;50.748;12.630;2023-05-21T08:39:02;13.13;;;10.00;;
26106;SDS011;13866;50.748;12.630;2023-05-21T08:41:36;10.77;;;9.87;;
26106;SDS011;13866;50.748;12.630;2023-05-21T08:44:03;16.40;;;10.43;;
26106;SDS011;13866;50.748;12.630;2023-05-21T08:46:35;11.37;;;10.27;;
26106;SDS011;13866;50.748;12.630;2023-05-21T08:49:08;11.33;;;10.53;;
26106;SDS011;13866;50.748;12.630;2023-05-21T08:51:36;10.07;;;9.50;;
26106;SDS011;13866;50.748;12.630;2023-05-21T08:54:11;10.10;;;9.60;;
26106;SDS011;13866;50.748;12.630;2023-05-21T08:56:41;10.63;;;9.80;;
26106;SDS011;13866;50.748;12.630;2023-05-21T08:59:14;10.77;;;10.17;;
26106;SDS011;13866;50.748;12.630;2023-05-21T09:02:00;10.97;;;9.87;;
26106;SDS011;13866;50.748;12.630;2023-05-21T09:04:27;9.87;;;9.17;;
26106;SDS011;13866;50.748;12.630;2023-05-21T09:06:53;11.43;;;10.30;;
26106;SDS011;13866;50.748;12.630;2023-05-21T09:09:26;11.13;;;10.03;;
26106;SDS011;13866;50.748;12.630;2023-05-21T09:11:58;10.93;;;10.20;;
26106;SDS011;13866;50.748;12.630;2023-05-21T09:14:23;12.03;;;11.00;;
26106;SDS011;13866;50.748;12.630;2023-05-21T09:17:08;13.30;;;10.40;;
26106;SDS011;13866;50.748;12.630;2023-05-21T09:22:36;9.97;;;9.20;;
26106;SDS011;13866;50.748;12.630;2023-05-21T09:25:27;10.83;;;9.97;;
26106;SDS011;13866;50.748;12.630;2023-05-21T09:28:02;10.40;;;9.50;;
26106;SDS011;13866;50.748;12.630;2023-05-21T09:30:42;10.23;;;9.70;;
26106;SDS011;13866;50.748;12.630;2023-05-21T09:33:23;9.77;;;9.27;;
26106;SDS011;13866;50.748;12.630;2023-05-21T09:35:50;9.23;;;8.63;;
26106;SDS011;13866;50.748;12.630;2023-05-21T09:38:15;10.07;;;9.30;;
26106;SDS011;13866;50.748;12.630;2023-05-21T09:40:44;11.43;;;10.40;;
26106;SDS011;13866;50.748;12.630;2023-05-21T09:43:13;9.07;;;8.50;;
26106;SDS011;13866;50.748;12.630;2023-05-21T09:45:51;9.63;;;9.17;;
26106;SDS011;13866;50.748;12.630;2023-05-21T09:51:17;9.47;;;8.60;;
26106;SDS011;13866;50.748;12.630;2023-05-21T09:54:17;11.70;;;8.37;;
26106;SDS011;13866;50.748;12.630;2023-05-21T09:56:52;9.50;;;8.37;;
26106;SDS011;13866;50.748;12.630;2023-05-21T09:59:17;8.47;;;7.90;;
26106;SDS011;13866;50.748;12.630;2023-05-21T10:01:56;10.17;;;9.40;;
26106;SDS011;13866;50.748;12.630;2023-05-21T10:04:22;13.43;;;8.70;;
26106;SDS011;13866;50.748;12.630;2023-05-21T10:09:13;7.90;;;7.63;;
26106;SDS011;13866;50.748;12.630;2023-05-21T10:11:48;9.10;;;8.37;;
26106;SDS011;13866;50.748;12.630;2023-05-21T10:14:18;8.67;;;7.97;;
26106;SDS011;13866;50.748;12.630;2023-05-21T10:16:45;8.43;;;7.90;;
26106;SDS011;13866;50.748;12.630;2023-05-21T10:19:11;8.93;;;8.43;;
26106;SDS011;13866;50.748;12.630;2023-05-21T10:21:38;7.90;;;7.40;;
26106;SDS011;13866;50.748;12.630;2023-05-21T10:28:07;8.13;;;7.73;;
26106;SDS011;13866;50.748;12.630;2023-05-21T10:30:33;10.37;;;7.73;;
26106;SDS011;13866;50.748;12.630;2023-05-21T10:32:59;7.43;;;7.10;;
26106;SDS011;13866;50.748;12.630;2023-05-21T10:35:26;8.40;;;7.67;;
26106;SDS011;13866;50.748;12.630;2023-05-21T10:37:58;7.23;;;6.83;;
26106;SDS011;13866;50.748;12.630;2023-05-21T10:40:27;8.13;;;7.53;;
26106;SDS011;13866;50.748;12.630;2023-05-21T10:43:03;7.67;;;7.13;;
26106;SDS011;13866;50.748;12.630;2023-05-21T10:51:27;10.43;;;7.23;;
26106;SDS011;13866;50.748;12.630;2023-05-21T11:01:20;7.80;;;7.00;;
26106;SDS011;13866;50.748;12.630;2023-05-21T11:08:03;9.43;;;7.70;;
26106;SDS011;13866;50.748;12.630;2023-05-21T11:13:17;7.23;;;6.80;;
26106;SDS011;13866;50.748;12.630;2023-05-21T11:21:20;8.63;;;7.80;;
26106;SDS011;13866;50.748;12.630;2023-05-21T11:24:05;10.33;;;7.13;;
26106;SDS011;13866;50.748;12.630;2023-05-21T11:29:13;10.93;;;7.13;;
26106;SDS011;13866;50.748;12.630;2023-05-21T11:32:04;7.23;;;6.63;;
26106;SDS011;13866;50.748;12.630;2023-05-21T11:34:51;7.40;;;6.93;;
26106;SDS011;13866;50.748;12.630;2023-05-21T11:39:51;7.50;;;6.97;;
26106;SDS011;13866;50.748;12.630;2023-05-21T11:42:30;6.33;;;6.13;;
26106;SDS011;13866;50.748;12.630;2023-05-21T11:48:03;7.37;;;6.80;;
26106;SDS011;13866;50.748;12.630;2023-05-21T11:50:30;7.77;;;6.83;;
26106;SDS011;13866;50.748;12.630;2023-05-21T11:52:58;7.33;;;6.93;;
26106;SDS011;13866;50.748;12.630;2023-05-21T11:55:29;7.97;;;7.57;;
26106;SDS011;13866;50.748;12.630;2023-05-21T11:57:56;7.93;;;7.13;;
26106;SDS011;13866;50.748;12.630;2023-05-21T12:00:41;6.40;;;6.10;;
26106;SDS011;13866;50.748;12.630;2023-05-21T12:03:06;8.57;;;7.97;;
26106;SDS011;13866;50.748;12.630;2023-05-21T12:05:46;8.13;;;7.53;;
26106;SDS011;13866;50.748;12.630;2023-05-21T12:08:24;7.70;;;7.40;;
26106;SDS011;13866;50.748;12.630;2023-05-21T12:10:57;8.63;;;8.03;;
26106;SDS011;13866;50.748;12.630;2023-05-21T12:13:23;7.87;;;7.17;;
26106;SDS011;13866;50.748;12.630;2023-05-21T12:16:05;7.23;;;6.67;;
26106;SDS011;13866;50.748;12.630;2023-05-21T12:18:30;10.70;;;6.10;;
26106;SDS011;13866;50.748;12.630;2023-05-21T12:21:05;6.53;;;6.10;;
26106;SDS011;13866;50.748;12.630;2023-05-21T12:23:31;8.27;;;6.97;;
26106;SDS011;13866;50.748;12.630;2023-05-21T12:26:02;7.33;;;6.83;;
26106;SDS011;13866;50.748;12.630;2023-05-21T12:28:28;6.50;;;6.17;;
26106;SDS011;13866;50.748;12.630;2023-05-21T12:30:54;9.60;;;6.60;;
26106;SDS011;13866;50.748;12.630;2023-05-21T12:33:34;9.03;;;6.73;;
26106;SDS011;13866;50.748;12.630;2023-05-21T12:36:00;8.83;;;6.53;;
26106;SDS011;13866;50.748;12.630;2023-05-21T12:38:30;6.20;;;6.00;;
26106;SDS011;13866;50.748;12.630;2023-05-21T12:41:03;7.37;;;6.97;;
26106;SDS011;13866;50.748;12.630;2023-05-21T12:43:30;6.60;;;6.23;;
26106;SDS011;13866;50.748;12.630;2023-05-21T12:45:56;8.60;;;7.10;;
26106;SDS011;13866;50.748;12.630;2023-05-21T12:48:34;7.13;;;6.53;;
26106;SDS011;13866;50.748;12.630;2023-05-21T12:50:59;7.13;;;6.83;;
26106;SDS011;13866;50.748;12.630;2023-05-21T12:53:34;7.93;;;7.30;;
26106;SDS011;13866;50.748;12.630;2023-05-21T12:59:11;8.53;;;6.80;;
26106;SDS011;13866;50.748;12.630;2023-05-21T13:01:38;8.03;;;7.23;;
26106;SDS011;13866;50.748;12.630;2023-05-21T13:04:03;7.13;;;6.73;;
26106;SDS011;13866;50.748;12.630;2023-05-21T13:06:29;7.20;;;6.90;;
26106;SDS011;13866;50.748;12.630;2023-05-21T13:08:55;7.10;;;6.77;;
26106;SDS011;13866;50.748;12.630;2023-05-21T13:11:20;6.80;;;6.50;;
26106;SDS011;13866;50.748;12.630;2023-05-21T13:13:46;7.10;;;6.80;;
26106;SDS011;13866;50.748;12.630;2023-05-21T13:16:11;7.43;;;7.03;;
26106;SDS011;13866;50.748;12.630;2023-05-21T13:18:37;7.10;;;6.70;;
26106;SDS011;13866;50.748;12.630;2023-05-21T13:21:11;5.83;;;5.53;;
26106;SDS011;13866;50.748;12.630;2023-05-21T13:23:37;5.90;;;5.70;;
26106;SDS011;13866;50.748;12.630;2023-05-21T13:26:02;6.93;;;6.63;;
26106;SDS011;13866;50.748;12.630;2023-05-21T13:28:28;7.10;;;6.50;;
26106;SDS011;13866;50.748;12.630;2023-05-21T13:30:53;10.03;;;6.43;;
26106;SDS011;13866;50.748;12.630;2023-05-21T13:33:19;6.53;;;6.10;;
26106;SDS011;13866;50.748;12.630;2023-05-21T13:35:45;6.40;;;6.20;;
26106;SDS011;13866;50.748;12.630;2023-05-21T13:38:15;6.90;;;6.60;;
26106;SDS011;13866;50.748;12.630;2023-05-21T13:40:40;7.77;;;7.27;;
26106;SDS011;13866;50.748;12.630;2023-05-21T13:43:06;12.80;;;6.97;;
26106;SDS011;13866;50.748;12.630;2023-05-21T13:45:31;7.03;;;6.67;;
26106;SDS011;13866;50.748;12.630;2023-05-21T13:48:06;6.67;;;6.13;;
26106;SDS011;13866;50.748;12.630;2023-05-21T13:50:46;7.53;;;6.90;;
26106;SDS011;13866;50.748;12.630;2023-05-21T13:53:14;6.30;;;6.20;;
26106;SDS011;13866;50.748;12.630;2023-05-21T13:55:49;7.40;;;6.50;;
26106;SDS011;13866;50.748;12.630;2023-05-21T13:58:14;6.67;;;6.47;;
26106;SDS011;13866;50.748;12.630;2023-05-21T14:00:40;16.63;;;6.30;;
26106;SDS011;13866;50.748;12.630;2023-05-21T14:03:06;6.53;;;6.03;;
26106;SDS011;13866;50.748;12.630;2023-05-21T14:05:34;7.70;;;7.20;;
26106;SDS011;13866;50.748;12.630;2023-05-21T14:07:59;6.30;;;5.90;;
26106;SDS011;13866;50.748;12.630;2023-05-21T14:10:25;12.10;;;6.67;;
26106;SDS011;13866;50.748;12.630;2023-05-21T14:12:51;6.60;;;5.97;;
26106;SDS011;13866;50.748;12.630;2023-05-21T14:15:16;7.67;;;7.03;;
26106;SDS011;13866;50.748;12.630;2023-05-21T14:17:42;8.77;;;7.97;;
26106;SDS011;13866;50.748;12.630;2023-05-21T14:20:08;7.10;;;6.80;;
26106;SDS011;13866;50.748;12.630;2023-05-21T14:22:34;8.07;;;7.43;;
26106;SDS011;13866;50.748;12.630;2023-05-21T14:24:59;9.03;;;6.70;;
26106;SDS011;13866;50.748;12.630;2023-05-21T14:27:25;11.47;;;6.70;;
26106;SDS011;13866;50.748;12.630;2023-05-21T14:29:50;6.90;;;6.40;;
26106;SDS011;13866;50.748;12.630;2023-05-21T14:32:16;6.80;;;6.33;;
26106;SDS011;13866;50.748;12.630;2023-05-21T14:34:42;7.43;;;7.03;;
26106;SDS011;13866;50.748;12.630;2023-05-21T14:37:08;8.47;;;6.10;;
26106;SDS011;13866;50.748;12.630;2023-05-21T14:39:33;6.50;;;6.30;;
26106;SDS011;13866;50.748;12.630;2023-05-21T14:41:59;7.93;;;7.40;;
26106;SDS011;13866;50.748;12.630;2023-05-21T14:44:27;6.77;;;6.40;;
26106;SDS011;13866;50.748;12.630;2023-05-21T14:49:50;6.00;;;5.90;;
26106;SDS011;13866;50.748;12.630;2023-05-21T14:52:15;13.80;;;8.03;;
26106;SDS011;13866;50.748;12.630;2023-05-21T14:54:41;8.13;;;7.23;;
26106;SDS011;13866;50.748;12.630;2023-05-21T14:57:06;7.17;;;6.50;;
26106;SDS011;13866;50.748;12.630;2023-05-21T14:59:32;7.13;;;6.77;;
26106;SDS011;13866;50.748;12.630;2023-05-21T15:01:57;8.23;;;7.17;;
26106;SDS011;13866;50.748;12.630;2023-05-21T15:04:23;7.37;;;6.77;;
26106;SDS011;13866;50.748;12.630;2023-05-21T15:06:48;7.20;;;6.90;;
26106;SDS011;13866;50.748;12.630;2023-05-21T15:09:14;6.50;;;6.30;;
26106;SDS011;13866;50.748;12.630;2023-05-21T15:11:45;6.30;;;6.13;;
26106;SDS011;13866;50.748;12.630;2023-05-21T15:14:16;6.93;;;6.30;;
26106;SDS011;13866;50.748;12.630;2023-05-21T15:16:42;6.57;;;6.37;;
26106;SDS011;13866;50.748;12.630;2023-05-21T15:19:07;7.37;;;6.83;;
26106;SDS011;13866;50.748;12.630;2023-05-21T15:21:39;8.13;;;7.40;;
26106;SDS011;13866;50.748;12.630;2023-05-21T15:24:17;7.17;;;6.77;;
26106;SDS011;13866;50.748;12.630;2023-05-21T15:26:42;6.23;;;5.83;;